createdAt,value
2019-05-25T00:01:56.594Z,6.97
2019-05-25T00:04:24.461Z,7.00
2019-05-25T00:06:52.268Z,7.40
2019-05-25T00:09:21.011Z,7.55
2019-05-25T00:11:48.899Z,7.62
2019-05-25T00:14:16.735Z,7.40
2019-05-25T00:16:44.631Z,6.95
2019-05-25T00:19:12.341Z,7.37
2019-05-25T00:21:40.202Z,7.17
2019-05-25T00:24:12.081Z,7.60
2019-05-25T00:26:38.019Z,7.20
2019-05-25T00:29:05.944Z,7.40
2019-05-25T00:31:33.739Z,7.30
2019-05-25T00:34:01.578Z,7.40
2019-05-25T00:36:29.802Z,7.78
2019-05-25T00:38:57.591Z,7.45
2019-05-25T00:41:25.440Z,7.50
2019-05-25T00:43:53.257Z,7.70
2019-05-25T00:46:21.475Z,7.50
2019-05-25T00:48:49.537Z,7.40
2019-05-25T00:51:17.384Z,7.60
2019-05-25T00:53:45.201Z,7.62
2019-05-25T00:56:12.952Z,7.50
2019-05-25T00:58:40.811Z,7.75
2019-05-25T01:01:08.870Z,7.10
2019-05-25T01:03:36.794Z,7.40
2019-05-25T01:06:05.129Z,7.23
2019-05-25T01:08:33.240Z,7.20
2019-05-25T01:11:01.029Z,7.50
2019-05-25T01:13:29.984Z,7.37
2019-05-25T01:15:58.610Z,7.37
2019-05-25T01:18:26.739Z,7.28
2019-05-25T01:20:55.140Z,7.53
2019-05-25T01:23:23.173Z,7.60
2019-05-25T01:25:51.055Z,7.20
2019-05-25T01:28:18.701Z,7.40
2019-05-25T01:30:46.479Z,7.20
2019-05-25T01:33:15.407Z,7.37
2019-05-25T01:35:43.543Z,7.58
2019-05-25T01:38:11.416Z,7.47
2019-05-25T01:40:39.233Z,7.70
2019-05-25T01:43:06.980Z,7.50
2019-05-25T01:45:34.955Z,7.42
2019-05-25T01:48:02.708Z,7.58
2019-05-25T01:50:30.722Z,7.47
2019-05-25T01:52:58.674Z,7.58
2019-05-25T01:55:26.452Z,7.65
2019-05-25T01:57:54.480Z,7.72
2019-05-25T02:00:22.423Z,7.60
2019-05-25T02:02:50.407Z,7.92
2019-05-25T02:05:18.249Z,7.40
2019-05-25T02:07:46.363Z,7.90
2019-05-25T02:10:14.442Z,7.90
2019-05-25T02:12:42.191Z,7.97
2019-05-25T02:15:10.285Z,7.90
2019-05-25T02:17:38.105Z,7.92
2019-05-25T02:20:06.276Z,7.87
2019-05-25T02:22:34.230Z,8.23
2019-05-25T02:25:16.435Z,7.97
2019-05-25T02:27:31.534Z,8.10
2019-05-25T02:29:59.244Z,8.10
2019-05-25T02:32:27.023Z,8.15
2019-05-25T02:34:54.723Z,7.85
2019-05-25T02:37:22.517Z,7.70
2019-05-25T02:39:50.929Z,8.43
2019-05-25T02:42:18.843Z,7.70
2019-05-25T02:44:46.819Z,7.97
2019-05-25T02:47:14.659Z,7.97
2019-05-25T02:49:42.294Z,8.20
2019-05-25T02:52:10.604Z,8.30
2019-05-25T02:54:38.543Z,8.07
2019-05-25T02:57:06.776Z,8.40
2019-05-25T02:59:34.558Z,8.18
2019-05-25T03:02:02.299Z,8.30
2019-05-25T03:04:30.108Z,8.55
2019-05-25T03:06:57.766Z,8.35
2019-05-25T03:09:27.380Z,7.80
2019-05-25T03:11:58.414Z,7.67
2019-05-25T03:14:26.353Z,7.75
2019-05-25T03:16:54.983Z,7.65
2019-05-25T03:19:22.764Z,8.40
2019-05-25T03:21:50.561Z,8.30
2019-05-25T03:24:18.874Z,8.60
2019-05-25T03:26:46.582Z,8.45
2019-05-25T03:29:14.250Z,10.45
2019-05-25T03:31:41.964Z,10.20
2019-05-25T03:34:10.107Z,10.80
2019-05-25T03:36:38.931Z,9.25
2019-05-25T03:39:07.225Z,8.55
2019-05-25T03:41:35.276Z,8.67
2019-05-25T03:44:03.633Z,8.70
2019-05-25T03:46:32.664Z,8.85
2019-05-25T03:49:00.766Z,8.68
2019-05-25T03:51:28.403Z,8.80
2019-05-25T03:53:56.363Z,8.85
2019-05-25T03:56:24.024Z,11.83
2019-05-25T03:58:52.033Z,9.73
2019-05-25T04:01:20.095Z,12.45
2019-05-25T04:03:48.027Z,10.67
2019-05-25T04:06:15.782Z,10.55
2019-05-25T04:08:44.815Z,8.68
2019-05-25T04:11:12.552Z,9.15
2019-05-25T04:13:40.471Z,9.03
2019-05-25T04:16:08.426Z,9.18
2019-05-25T04:18:36.326Z,12.78
2019-05-25T04:21:03.963Z,8.85
2019-05-25T04:23:31.553Z,9.20
2019-05-25T04:25:59.276Z,9.08
2019-05-25T04:28:27.948Z,8.98
2019-05-25T04:30:55.741Z,9.45
2019-05-25T04:33:23.380Z,9.05
2019-05-25T04:35:51.513Z,9.68
2019-05-25T04:38:19.447Z,9.60
2019-05-25T04:40:47.416Z,10.20
2019-05-25T04:43:15.735Z,10.00
2019-05-25T04:45:43.462Z,9.70
2019-05-25T04:48:11.164Z,9.15
2019-05-25T04:50:39.380Z,8.58
2019-05-25T04:53:07.061Z,8.05
2019-05-25T04:55:34.897Z,8.83
2019-05-25T04:58:03.147Z,7.90
2019-05-25T05:00:30.999Z,7.60
2019-05-25T05:02:58.846Z,7.05
2019-05-25T05:05:26.475Z,7.58
2019-05-25T05:07:54.601Z,7.87
2019-05-25T05:10:22.929Z,7.70
2019-05-25T05:12:51.106Z,8.35
2019-05-25T05:15:19.173Z,8.10
2019-05-25T05:17:46.870Z,7.78
2019-05-25T05:20:15.593Z,7.78
2019-05-25T05:22:43.205Z,7.72
2019-05-25T05:25:12.324Z,8.18
2019-05-25T05:27:40.283Z,7.87
2019-05-25T05:30:08.213Z,7.50
2019-05-25T05:32:36.163Z,7.47
2019-05-25T05:35:05.142Z,7.33
2019-05-25T05:37:33.534Z,7.10
2019-05-25T05:40:01.429Z,7.17
2019-05-25T05:42:32.041Z,7.40
2019-05-25T05:45:02.165Z,7.20
2019-05-25T05:47:34.014Z,7.80
2019-05-25T05:50:02.451Z,8.73
2019-05-25T05:52:36.215Z,8.90
2019-05-25T05:55:04.536Z,8.28
2019-05-25T05:57:32.432Z,9.18
2019-05-25T06:00:00.390Z,9.60
2019-05-25T06:02:28.090Z,8.48
2019-05-25T06:04:55.874Z,8.00
2019-05-25T06:07:27.240Z,8.20
2019-05-25T06:09:53.911Z,8.00
2019-05-25T06:12:21.537Z,7.50
2019-05-25T06:14:49.109Z,7.60
2019-05-25T06:17:17.187Z,7.92
2019-05-25T06:19:45.175Z,8.80
2019-05-25T06:22:12.974Z,9.10
2019-05-25T06:24:41.716Z,9.65
2019-05-25T06:27:09.545Z,10.00
2019-05-25T06:29:37.166Z,10.53
2019-05-25T06:32:05.354Z,13.08
2019-05-25T06:34:33.877Z,11.90
2019-05-25T06:37:01.733Z,11.50
2019-05-25T06:39:29.604Z,11.60
2019-05-25T06:41:57.585Z,13.97
2019-05-25T06:44:25.371Z,13.85
2019-05-25T06:46:53.007Z,14.00
2019-05-25T06:49:20.615Z,15.50
2019-05-25T06:51:48.127Z,14.35
2019-05-25T06:54:16.039Z,13.43
2019-05-25T06:56:45.035Z,14.53
2019-05-25T06:59:12.824Z,13.65
2019-05-25T07:01:40.507Z,12.93
2019-05-25T07:04:09.141Z,12.98
2019-05-25T07:06:37.184Z,12.85
2019-05-25T07:09:06.668Z,13.50
2019-05-25T07:11:34.387Z,14.93
2019-05-25T07:14:02.287Z,14.13
2019-05-25T07:16:30.037Z,12.60
2019-05-25T07:18:57.948Z,13.40
2019-05-25T07:21:25.614Z,13.32
2019-05-25T07:23:53.405Z,12.45
2019-05-25T07:26:21.344Z,13.05
2019-05-25T07:28:49.007Z,12.30
2019-05-25T07:31:16.797Z,12.47
2019-05-25T07:33:45.874Z,11.93
2019-05-25T07:36:13.738Z,12.30
2019-05-25T07:38:41.947Z,12.28
2019-05-25T07:41:10.142Z,12.33
2019-05-25T07:43:38.462Z,11.43
2019-05-25T07:46:06.846Z,12.85
2019-05-25T07:48:34.675Z,12.40
2019-05-25T07:51:02.679Z,12.93
2019-05-25T07:53:30.651Z,13.60
2019-05-25T07:55:58.348Z,12.60
2019-05-25T07:58:26.399Z,13.28
2019-05-25T08:00:54.130Z,13.28
2019-05-25T08:03:22.020Z,13.68
2019-05-25T08:05:49.638Z,13.90
2019-05-25T08:08:18.758Z,14.03
2019-05-25T08:10:46.602Z,14.23
2019-05-25T08:13:14.773Z,13.28
2019-05-25T08:15:42.979Z,14.47
2019-05-25T08:18:11.280Z,13.55
2019-05-25T08:20:39.535Z,14.20
2019-05-25T08:23:07.167Z,13.17
2019-05-25T08:25:35.146Z,13.75
2019-05-25T08:28:02.795Z,14.40
2019-05-25T08:30:30.969Z,13.85
2019-05-25T08:32:58.842Z,14.45
2019-05-25T08:35:26.631Z,14.75
2019-05-25T08:37:54.978Z,18.30
2019-05-25T08:40:22.739Z,15.25
2019-05-25T08:42:50.557Z,14.07
2019-05-25T08:45:18.739Z,13.50
2019-05-25T08:47:47.588Z,13.35
2019-05-25T08:50:15.557Z,15.83
2019-05-25T08:52:43.368Z,14.40
2019-05-25T08:55:11.648Z,13.43
2019-05-25T08:57:39.682Z,13.80
2019-05-25T09:00:08.104Z,12.97
2019-05-25T09:02:36.497Z,12.75
2019-05-25T09:05:05.262Z,12.43
2019-05-25T09:07:33.602Z,12.10
2019-05-25T09:10:01.342Z,11.80
2019-05-25T09:12:29.263Z,11.90
2019-05-25T09:14:57.705Z,11.68
2019-05-25T09:17:25.439Z,12.30
2019-05-25T09:19:53.507Z,11.10
2019-05-25T09:22:21.306Z,11.20
2019-05-25T09:24:49.441Z,11.83
2019-05-25T09:27:17.371Z,11.63
2019-05-25T09:29:45.223Z,11.53
2019-05-25T09:32:13.513Z,12.15
2019-05-25T09:34:41.499Z,12.05
2019-05-25T09:37:09.106Z,10.87
2019-05-25T09:39:36.760Z,11.25
2019-05-25T09:42:05.007Z,10.30
2019-05-25T09:44:32.664Z,10.78
2019-05-25T09:47:00.452Z,10.10
2019-05-25T09:49:28.164Z,9.23
2019-05-25T09:51:56.189Z,9.23
2019-05-25T09:54:24.127Z,9.77
2019-05-25T09:59:20.677Z,10.40
2019-05-25T10:01:48.720Z,10.60
2019-05-25T10:04:16.829Z,9.93
2019-05-25T10:06:45.190Z,9.10
2019-05-25T10:09:13.324Z,9.90
2019-05-25T10:11:42.054Z,10.33
2019-05-25T10:14:09.698Z,10.67
2019-05-25T10:16:37.537Z,9.13
2019-05-25T10:19:05.560Z,10.03
2019-05-25T10:21:33.865Z,9.60
2019-05-25T10:24:01.890Z,8.57
2019-05-25T10:26:29.645Z,8.53
2019-05-25T10:28:57.543Z,8.03
2019-05-25T10:31:25.228Z,8.20
2019-05-25T10:33:52.967Z,7.40
2019-05-25T10:36:20.665Z,7.20
2019-05-25T10:38:50.272Z,6.83
2019-05-25T10:41:18.325Z,7.60
2019-05-25T10:43:45.975Z,7.67
2019-05-25T10:46:13.972Z,7.33
2019-05-25T10:48:42.739Z,7.10
2019-05-25T10:51:10.566Z,6.67
2019-05-25T10:53:38.270Z,6.87
2019-05-25T10:56:06.269Z,7.47
2019-05-25T10:58:34.232Z,7.53
2019-05-25T11:01:01.990Z,8.00
2019-05-25T11:03:29.795Z,7.87
2019-05-25T11:05:57.438Z,8.40
2019-05-25T11:08:25.927Z,9.03
2019-05-25T11:10:54.018Z,9.03
2019-05-25T11:13:22.004Z,9.85
2019-05-25T11:15:49.885Z,10.15
2019-05-25T11:18:18.075Z,10.17
2019-05-25T11:20:45.814Z,10.28
2019-05-25T11:23:13.483Z,10.80
2019-05-25T11:25:41.863Z,11.38
2019-05-25T11:28:09.595Z,12.20
2019-05-25T11:30:37.232Z,14.35
2019-05-25T11:33:04.995Z,13.15
2019-05-25T11:35:33.052Z,14.20
2019-05-25T11:38:00.742Z,13.58
2019-05-25T11:40:28.437Z,13.25
2019-05-25T11:42:56.512Z,12.50
2019-05-25T11:45:24.719Z,12.33
2019-05-25T11:47:52.542Z,13.95
2019-05-25T11:50:20.632Z,14.05
2019-05-25T11:52:48.734Z,13.18
2019-05-25T11:55:16.893Z,13.20
2019-05-25T11:57:45.400Z,11.70
2019-05-25T12:00:24.279Z,12.47
2019-05-25T12:02:44.262Z,11.65
2019-05-25T12:05:12.434Z,12.85
2019-05-25T12:07:43.801Z,13.15
2019-05-25T12:10:11.830Z,14.00
2019-05-25T12:12:39.666Z,13.95
2019-05-25T12:15:08.826Z,12.33
2019-05-25T12:17:36.611Z,12.15
2019-05-25T12:20:05.188Z,11.90
2019-05-25T12:22:33.061Z,12.47
2019-05-25T12:25:01.062Z,17.82
2019-05-25T12:27:28.760Z,16.42
2019-05-25T12:29:56.434Z,11.27
2019-05-25T12:32:24.508Z,12.17
2019-05-25T12:34:52.172Z,12.07
2019-05-25T12:37:20.134Z,14.03
2019-05-25T12:39:48.072Z,14.03
2019-05-25T12:42:15.766Z,15.05
2019-05-25T12:44:43.492Z,14.58
2019-05-25T12:47:11.247Z,14.15
2019-05-25T12:49:50.108Z,13.95
2019-05-25T12:52:08.780Z,14.63
2019-05-25T12:54:37.118Z,15.85
2019-05-25T12:57:04.738Z,16.52
2019-05-25T12:59:32.295Z,16.50
2019-05-25T13:02:00.639Z,16.93
2019-05-25T13:04:28.736Z,17.73
2019-05-25T13:06:56.396Z,18.90
2019-05-25T13:09:24.791Z,18.53
2019-05-25T13:11:52.533Z,18.75
2019-05-25T13:14:20.611Z,18.70
2019-05-25T13:16:48.491Z,17.65
2019-05-25T13:19:16.647Z,17.30
2019-05-25T13:21:44.534Z,15.85
2019-05-25T13:24:12.196Z,10.55
2019-05-25T13:26:39.917Z,14.55
2019-05-25T13:29:07.930Z,11.83
2019-05-25T13:31:36.932Z,11.40
2019-05-25T13:34:04.595Z,10.58
2019-05-25T13:36:32.259Z,12.20
2019-05-25T13:38:59.961Z,14.30
2019-05-25T13:41:27.871Z,15.63
2019-05-25T13:43:55.551Z,14.33
2019-05-25T13:46:23.709Z,13.00
2019-05-25T13:48:51.810Z,11.60
2019-05-25T13:51:19.900Z,11.08
2019-05-25T13:53:49.296Z,8.18
2019-05-25T13:56:17.285Z,6.60
2019-05-25T13:58:45.539Z,6.13
2019-05-25T14:01:27.498Z,5.97
2019-05-25T14:03:43.164Z,7.60
2019-05-25T14:06:11.466Z,9.60
2019-05-25T14:08:39.411Z,8.80
2019-05-25T14:11:07.299Z,9.80
2019-05-25T14:13:35.741Z,9.75
2019-05-25T14:16:06.966Z,10.38
2019-05-25T14:18:33.338Z,10.35
2019-05-25T14:21:01.048Z,10.08
2019-05-25T14:23:29.015Z,11.35
2019-05-25T14:25:57.246Z,10.63
2019-05-25T14:28:25.305Z,10.53
2019-05-25T14:30:52.980Z,10.88
2019-05-25T14:33:21.041Z,10.65
2019-05-25T14:35:49.263Z,10.98
2019-05-25T14:38:28.222Z,9.90
2019-05-25T14:40:56.356Z,9.80
2019-05-25T14:43:28.116Z,8.88
2019-05-25T14:45:56.459Z,7.72
2019-05-25T14:48:24.208Z,6.42
2019-05-25T14:50:52.172Z,5.10
2019-05-25T14:53:20.150Z,5.10
2019-05-25T14:55:47.732Z,5.17
2019-05-25T14:58:18.653Z,5.20
2019-05-25T15:00:46.536Z,5.87
2019-05-25T15:03:14.307Z,5.20
2019-05-25T15:05:42.619Z,4.97
2019-05-25T15:08:10.890Z,5.20
2019-05-25T15:10:38.924Z,5.80
2019-05-25T15:13:06.897Z,8.08
2019-05-25T15:15:35.395Z,7.33
2019-05-25T15:18:04.579Z,6.55
2019-05-25T15:20:32.549Z,7.60
2019-05-25T15:23:00.269Z,7.53
2019-05-25T15:25:28.072Z,8.08
2019-05-25T15:27:56.682Z,7.83
2019-05-25T15:30:25.164Z,7.97
2019-05-25T15:32:54.147Z,10.55
2019-05-25T15:35:21.912Z,10.67
2019-05-25T15:37:49.631Z,10.75
2019-05-25T15:40:20.774Z,10.75
2019-05-25T15:42:48.776Z,10.50
2019-05-25T15:45:16.883Z,9.85
2019-05-25T15:47:45.109Z,10.80
2019-05-25T15:50:15.343Z,10.88
2019-05-25T15:52:43.168Z,10.32
2019-05-25T15:55:11.248Z,10.57
2019-05-25T15:57:39.468Z,10.80
2019-05-25T16:00:08.487Z,10.10
2019-05-25T16:02:37.820Z,9.27
2019-05-25T16:05:05.857Z,9.90
2019-05-25T16:07:37.375Z,10.27
2019-05-25T16:10:07.091Z,9.63
2019-05-25T16:12:35.009Z,10.75
2019-05-25T16:15:07.050Z,9.70
2019-05-25T16:17:35.034Z,9.28
2019-05-25T16:20:03.428Z,9.50
2019-05-25T16:22:31.754Z,9.18
2019-05-25T16:25:00.500Z,9.03
2019-05-25T16:27:28.943Z,7.97
2019-05-25T17:09:15.190Z,11.37
2019-05-25T17:11:43.392Z,12.18
2019-05-25T17:14:11.436Z,12.23
2019-05-25T17:16:39.198Z,13.43
2019-05-25T17:19:06.909Z,12.95
2019-05-25T17:21:34.928Z,14.05
2019-05-25T17:24:03.066Z,13.78
2019-05-25T17:26:30.774Z,13.55
2019-05-25T17:28:58.619Z,13.50
2019-05-25T17:31:26.656Z,14.05
2019-05-25T17:33:54.956Z,13.03
2019-05-25T17:36:23.020Z,13.45
2019-05-25T17:38:51.534Z,13.30
2019-05-25T17:41:19.593Z,13.32
2019-05-25T17:43:47.988Z,15.75
2019-05-25T17:46:15.799Z,15.43
2019-05-25T17:48:43.536Z,14.53
2019-05-25T17:51:11.211Z,13.88
2019-05-25T17:53:38.875Z,13.78
2019-05-25T17:56:08.027Z,13.60
2019-05-25T17:58:35.968Z,14.28
2019-05-25T18:01:04.000Z,17.15
2019-05-25T18:03:31.846Z,16.93
2019-05-25T18:05:59.623Z,14.28
2019-05-25T18:08:27.419Z,14.40
2019-05-25T18:10:55.354Z,14.63
2019-05-25T18:13:23.546Z,12.50
2019-05-25T18:15:54.078Z,12.43
2019-05-25T18:18:22.430Z,11.80
2019-05-25T18:20:50.312Z,11.48
2019-05-25T18:23:18.286Z,12.07
2019-05-25T18:25:46.479Z,13.83
2019-05-25T18:28:14.198Z,13.80
2019-05-25T18:30:42.643Z,13.40
2019-05-25T18:33:10.965Z,13.30
2019-05-25T18:35:38.868Z,15.35
2019-05-25T18:38:06.976Z,13.83
2019-05-25T18:40:34.647Z,14.10
2019-05-25T18:43:02.805Z,13.63
2019-05-25T18:45:30.454Z,14.03
2019-05-25T18:47:58.231Z,13.70
2019-05-25T18:50:26.454Z,14.53
2019-05-25T18:52:54.458Z,13.50
2019-05-25T18:55:22.679Z,12.95
2019-05-25T18:57:50.508Z,13.85
2019-05-25T19:00:20.063Z,15.13
2019-05-25T19:02:47.643Z,15.83
2019-05-25T19:05:16.614Z,14.80
2019-05-25T19:07:44.470Z,14.90
2019-05-25T19:10:12.659Z,15.38
2019-05-25T19:12:40.757Z,15.23
2019-05-25T19:15:09.242Z,18.15
2019-05-25T19:17:36.978Z,19.05
2019-05-25T19:20:06.307Z,14.40
2019-05-25T19:22:34.487Z,12.93
2019-05-25T19:25:03.539Z,11.73
2019-05-25T19:27:31.545Z,11.65
2019-05-25T19:30:00.357Z,9.90
2019-05-25T19:32:27.962Z,9.53
2019-05-25T19:34:59.722Z,8.80
2019-05-25T19:37:25.839Z,9.20
2019-05-25T19:39:54.100Z,8.58
2019-05-25T19:42:22.179Z,9.70
2019-05-25T19:44:50.018Z,8.70
2019-05-25T19:47:17.867Z,7.55
2019-05-25T19:49:46.699Z,6.30
2019-05-25T19:52:15.554Z,6.35
2019-05-25T19:54:43.702Z,6.83
2019-05-25T19:57:11.635Z,7.65
2019-05-25T19:59:39.743Z,8.80
2019-05-25T20:02:09.409Z,8.73
2019-05-25T20:04:37.508Z,9.25
2019-05-25T20:07:05.196Z,11.15
2019-05-25T20:09:32.891Z,12.70
2019-05-25T20:12:00.814Z,13.45
2019-05-25T20:14:29.028Z,13.72
2019-05-25T20:16:57.609Z,15.67
2019-05-25T20:19:25.638Z,15.18
2019-05-25T20:21:53.439Z,15.90
2019-05-25T20:24:21.416Z,14.85
2019-05-25T20:26:49.241Z,15.50
2019-05-25T20:29:17.205Z,17.62
2019-05-25T20:31:45.037Z,21.30
2019-05-25T20:34:13.206Z,18.57
2019-05-25T20:36:41.153Z,17.48
2019-05-25T20:39:13.304Z,17.20
2019-05-25T20:41:41.349Z,17.27
2019-05-25T20:44:09.163Z,18.30
2019-05-25T20:46:37.168Z,18.00
2019-05-25T20:49:04.919Z,18.07
2019-05-25T20:51:33.520Z,18.60
2019-05-25T20:54:01.943Z,18.77
2019-05-25T20:56:30.635Z,21.60
2019-05-25T20:58:58.599Z,18.90
2019-05-25T21:01:27.847Z,18.87
2019-05-25T21:03:56.003Z,18.40
2019-05-25T21:06:24.598Z,18.05
2019-05-25T21:08:52.297Z,18.20
2019-05-25T21:11:20.525Z,18.00
2019-05-25T21:13:48.275Z,18.05
2019-05-25T21:16:16.118Z,18.48
2019-05-25T21:18:44.064Z,18.07
2019-05-25T21:21:12.216Z,18.27
2019-05-25T21:23:40.644Z,20.62
2019-05-25T21:26:08.464Z,21.45
2019-05-25T21:28:36.133Z,19.98
2019-05-25T21:31:04.390Z,20.82
2019-05-25T21:33:32.237Z,17.60
2019-05-25T21:36:08.118Z,17.27
2019-05-25T21:38:30.151Z,16.93
2019-05-25T21:40:58.187Z,16.93
2019-05-25T21:43:26.230Z,19.00
2019-05-25T21:45:54.215Z,18.42
2019-05-25T21:48:22.303Z,18.30
2019-05-25T21:50:49.875Z,18.48
2019-05-25T21:53:17.423Z,18.30
2019-05-25T21:55:45.458Z,17.85
2019-05-25T21:58:13.403Z,17.77
2019-05-25T22:00:41.586Z,17.75
2019-05-25T22:03:10.275Z,17.60
2019-05-25T22:05:38.045Z,17.32
2019-05-25T22:08:05.755Z,17.05
2019-05-25T22:10:34.844Z,16.35
2019-05-25T22:13:02.678Z,16.60
2019-05-25T22:15:31.159Z,16.00
2019-05-25T22:17:58.856Z,15.83
2019-05-25T22:20:26.613Z,16.10
2019-05-25T22:22:55.057Z,16.32
2019-05-25T22:25:22.831Z,16.75
2019-05-25T22:27:50.753Z,16.85
2019-05-25T22:30:18.908Z,17.57
2019-05-25T22:32:47.257Z,16.97
2019-05-25T22:35:16.081Z,17.00
2019-05-25T22:37:44.136Z,16.77
2019-05-25T22:40:12.369Z,16.55
2019-05-25T22:42:40.182Z,17.20
2019-05-25T22:45:08.367Z,18.10
2019-05-25T22:47:36.115Z,17.42
2019-05-25T22:50:04.474Z,16.43
2019-05-25T22:52:32.134Z,16.80
2019-05-25T22:54:59.911Z,15.90
2019-05-25T22:57:27.825Z,16.07
2019-05-25T22:59:55.898Z,15.70
2019-05-25T23:02:23.662Z,15.80
2019-05-25T23:04:51.655Z,15.58
2019-05-25T23:07:19.563Z,15.23
2019-05-25T23:09:47.337Z,14.53
2019-05-25T23:12:14.899Z,14.45
2019-05-25T23:14:42.570Z,14.58
2019-05-25T23:17:10.453Z,14.28
2019-05-25T23:19:38.268Z,14.43
2019-05-25T23:22:06.328Z,14.23
2019-05-25T23:24:34.027Z,14.00
2019-05-25T23:27:02.796Z,14.20
2019-05-25T23:29:30.674Z,13.72
2019-05-25T23:31:58.623Z,13.60
2019-05-25T23:34:26.412Z,13.55
2019-05-25T23:36:54.123Z,13.20
2019-05-25T23:39:21.900Z,13.53
2019-05-25T23:41:49.730Z,14.00
2019-05-25T23:44:17.412Z,13.63
2019-05-25T23:46:45.369Z,13.22
2019-05-25T23:49:13.132Z,13.40
2019-05-25T23:51:40.769Z,13.08
2019-05-25T23:54:08.444Z,13.58
2019-05-25T23:56:36.651Z,13.22
2019-05-25T23:59:04.294Z,13.13
